Latest Coastal Weather Observations for Cairns

IDQ60701

Issued at 5:52 am EST Wednesday 8 April 2020 (issued every 10 minutes, with the page automatically refreshed every 10 minutes)

About coastal observations | Map of coastal stations | Coastal observations for QLD | Marine services | Other Formats
Station Details ID: 031011 Name: CAIRNS AERO Lat: -16.87 Lon: 145.75 Height: 2.22 m
Data from the previous 72 hours. | See also: Recent months at Cairns
Date/Time
EST
Wind Sea
Height
m
Swell Vis
km
Cloud Weather Temp
°C
Press
hPa
Rain since
9am
mm
Dir  Spd
kts
Gust
kts
Height
m
Period
s
Dir
08/05:30am S 6 11 - - - - 10 Partly cloudy - 24.6 1011.6 2.6
08/05:00am S 5 10 - - - - 10 Partly cloudy - 24.7 1011.6 2.6
08/04:30am S 5 8 - - - - 10 Partly cloudy - 24.5 1011.4 2.6
08/04:00am S 4 9 - - - - 10 Partly cloudy - 24.3 1011.4 2.6
08/03:30am S 5 9 - - - - 10 Partly cloudy - 24.5 1011.6 2.6
08/03:00am SSE 4 8 - - - - 10 Cloudy Rain 24.0 1011.5 2.6
08/02:30am S 6 11 - - - - 10 Partly cloudy - 24.4 1011.6 2.6
08/02:00am SSE 8 10 - - - - 10 Partly cloudy - 24.3 1011.7 2.6
08/01:30am S 5 9 - - - - 10 Partly cloudy - 25.0 1011.9 2.6
08/01:00am S 8 12 - - - - 10 Partly cloudy - 24.6 1012.3 2.6
08/12:30am SE 6 8 - - - - 10 Partly cloudy - 24.3 1012.5 2.6
08/12:00am SSE 4 7 - - - - 10 Mostly cloudy - 24.8 1012.6 2.6
 
Date/Time
EST
Wind Sea
Height
m
Swell Vis
km
Cloud Weather Temp
°C
Press
hPa
Rain since
9am
mm
Dir  Spd
kts
Gust
kts
Height
m
Period
s
Dir
07/11:30pm S 4 9 - - - - 10 - - 24.9 1012.8 2.6
07/11:00pm S 5 9 - - - - 10 Partly cloudy - 24.9 1012.9 2.6
07/10:30pm S 4 7 - - - - 10 Partly cloudy - 24.9 1013.1 2.6
07/10:00pm SE 8 10 - - - - 10 Partly cloudy - 24.7 1013.1 2.6
07/09:30pm SE 4 7 - - - - 10 Partly cloudy - 24.4 1013.0 2.6
07/09:00pm S 4 8 - - - - 10 Partly cloudy - 25.0 1012.8 2.6
07/08:30pm SSE 5 7 - - - - 10 Partly cloudy - 24.8 1012.5 2.6
07/08:00pm SSE 5 9 - - - - 10 Partly cloudy - 25.2 1012.3 2.6
07/07:30pm SE 3 5 - - - - 10 Partly cloudy - 24.7 1012.2 2.6
07/07:00pm CALM 0 4 - - - - 10 Cloudy - 25.4 1012.0 2.6
07/06:30pm S 5 10 - - - - 10 Partly cloudy - 25.6 1011.6 2.6
07/06:00pm SSE 9 13 - - - - 10 Cloudy - 25.7 1011.2 2.6
07/05:37pm SSE 8 20 - - - - 10 Partly cloudy - 26.6 1011.4 2.6
07/05:30pm SSE 5 8 - - - - 10 Partly cloudy - 27.1 1011.2 2.6
07/05:00pm SSE 5 8 - - - - 10 Partly cloudy - 27.1 1011.0 2.6
07/04:30pm SE 8 10 - - - - 10 Partly cloudy - 27.8 1010.8 2.6
07/04:00pm SE 11 15 - - - - 10 Partly cloudy - 27.8 1010.8 2.6
07/03:30pm SE 11 15 - - - - 10 Partly cloudy - 27.8 1010.8 2.6
07/03:00pm SSE 8 12 - - - - 10 Cloudy - 28.5 1010.9 2.6
07/02:30pm S 7 12 - - - - 10 Partly cloudy - 28.4 1010.9 2.6
07/02:00pm S 8 13 - - - - 10 Partly cloudy - 26.8 1011.0 2.6
07/01:30pm SSE 8 11 - - - - 10 Partly cloudy - 26.1 1011.4 2.6
07/01:00pm S 6 10 - - - - 10 Partly cloudy - 26.6 1011.7 2.4
07/12:30pm S 7 11 - - - - 10 Partly cloudy - 26.8 1012.0 2.4
07/12:00pm S 7 10 - - - - 10 Mostly cloudy - 27.0 1012.4 2.4
07/11:30am S 9 14 - - - - 10 Partly cloudy - 25.5 1013.1 2.4
07/11:00am SSW 4 9 - - - - 10 Cloudy - 24.9 1013.4 2.4
07/10:30am S 3 5 - - - - 10 Partly cloudy - 24.4 1013.7 2.4
07/10:28am S 2 5 - - - - 10 Partly cloudy - 24.4 1013.8 2.4
07/10:00am S 5 11 - - - - 6 Partly cloudy - 23.7 1014.1 2.2
07/09:59am S 5 11 - - - - 6 Partly cloudy - 23.9 1014.1 2.2
07/09:52am S 6 11 - - - - 10 Partly cloudy - 23.7 1014.0 1.8
07/09:48am SSE 4 7 - - - - 10 Partly cloudy - 23.7 1014.0 1.8
07/09:30am SE 8 12 - - - - 5 Partly cloudy - 23.8 1014.0 1.0
07/09:29am SE 8 11 - - - - 5 Partly cloudy - 24.0 1014.0 1.0
07/09:28am SE 8 11 - - - - 6 Partly cloudy - 24.2 1014.0 0.8
07/09:00am SE 5 10 - - - - 10 Cloudy Rain 25.1 1013.4 3.0
07/08:30am S 5 10 - - - - 10 Partly cloudy - 25.7 1012.9 2.8
07/08:00am SW 1 3 - - - - 10 Partly cloudy - 24.2 1013.0 2.8
07/07:48am WSW 1 3 - - - - 10 Partly cloudy - 23.6 1012.8 2.8
07/07:30am SSE 3 6 - - - - 6 Partly cloudy - 23.6 1012.6 2.8
07/07:00am SSE 8 13 - - - - 10 Partly cloudy - 23.4 1012.0 2.2
07/06:42am SSE 9 13 - - - - 5 Partly cloudy - 23.1 1011.8 2.2
07/06:30am SE 6 9 - - - - 10 Partly cloudy - 23.8 1011.5 0.4
07/06:00am ESE 6 9 - - - - 10 Cloudy - 23.9 1011.2 0.4
07/05:30am SSE 4 8 - - - - 10 Partly cloudy - 24.2 1011.0 0.4
07/05:00am W 2 4 - - - - 10 Partly cloudy - 23.7 1010.7 0.4
07/04:30am NNW 2 5 - - - - 10 Partly cloudy - 23.8 1010.5 0.4
07/04:00am SSE 3 5 - - - - 10 Partly cloudy - 24.0 1010.4 0.4
07/03:30am SSE 8 11 - - - - 10 Partly cloudy - 24.3 1010.5 0.0
07/03:00am SSE 8 10 - - - - 10 - - 24.2 1010.3 0.0
07/02:30am SE 6 8 - - - - 10 Partly cloudy - 24.2 1010.6 0.0
07/02:00am S 6 10 - - - - 10 - - 25.8 1010.9 0.0
07/01:30am S 4 9 - - - - 10 - - 25.5 1011.3 0.0
07/01:00am S 3 6 - - - - 10 - - 25.7 1011.5 0.0
07/12:30am SSE 3 5 - - - - 10 Partly cloudy - 25.3 1011.9 0.0
07/12:00am S 5 9 - - - - 10 Cloudy - 26.2 1012.3 0.0
 
Date/Time
EST
Wind Sea
Height
m
Swell Vis
km
Cloud Weather Temp
°C
Press
hPa
Rain since
9am
mm
Dir  Spd
kts
Gust
kts
Height
m
Period
s
Dir
06/11:30pm S 5 9 - - - - 10 - - 26.2 1012.3 0.0
06/11:00pm SSE 4 8 - - - - 10 - - 26.1 1012.4 0.0
06/10:30pm S 3 8 - - - - 10 - - 26.1 1012.5 0.0
06/10:00pm S 3 4 - - - - 10 - - 26.0 1012.6 0.0
06/09:30pm S 3 4 - - - - 10 - - 26.3 1012.5 0.0
06/09:00pm S 2 4 - - - - 10 - - 26.1 1012.3 0.0
06/08:30pm S 2 4 - - - - 10 - - 26.4 1012.3 0.0
06/08:00pm SE 7 9 - - - - 10 - - 26.4 1011.9 0.0
06/07:30pm SE 9 11 - - - - 10 Partly cloudy - 26.9 1011.8 0.0
06/07:00pm SSE 3 4 - - - - 10 Partly cloudy - 26.6 1011.6 0.0
06/06:30pm SE 7 10 - - - - 10 Partly cloudy - 27.2 1011.2 0.0
06/06:00pm ESE 9 11 - - - - 10 - - 27.9 1010.8 0.0
06/05:30pm ESE 11 14 - - - - 10 - - 28.7 1010.8 0.0
06/05:00pm SE 10 13 - - - - 10 Partly cloudy - 28.7 1010.7 0.0
06/04:30pm SE 9 12 - - - - 10 Partly cloudy - 29.5 1010.5 0.0
06/04:00pm SE 9 13 - - - - 10 Partly cloudy - 29.9 1010.2 0.0
06/03:30pm SE 12 16 - - - - 10 Partly cloudy - 29.8 1010.2 0.0
06/03:00pm SE 13 17 - - - - 10 Partly cloudy - 30.6 1010.1 0.0
06/02:30pm SE 12 17 - - - - 10 - - 31.1 1010.4 0.0
06/02:00pm ESE 12 16 - - - - 10 - - 31.4 1010.6 0.0
06/01:30pm ESE 10 14 - - - - 10 - - 30.7 1011.1 0.0
06/01:00pm ESE 10 13 - - - - 10 - - 31.4 1011.5 0.0
06/12:30pm SE 8 12 - - - - 10 - - 30.5 1011.9 0.0
06/12:00pm ESE 7 12 - - - - 10 Mostly clear - 30.8 1012.6 0.0
06/11:30am ESE 7 11 - - - - 10 - - 30.5 1013.1 0.0
06/11:00am ESE 9 14 - - - - 10 Partly cloudy - 30.1 1013.4 0.0
06/10:30am SE 9 12 - - - - 10 Partly cloudy - 29.6 1013.6 0.0
06/10:00am SSE 8 12 - - - - 10 Partly cloudy - 29.7 1013.6 0.0
06/09:30am SSE 6 9 - - - - 10 - - 28.4 1013.6 0.0
06/09:00am SSE 6 10 - - - - 10 Partly cloudy - 27.8 1013.6 0.0
06/08:30am SSE 7 10 - - - - 10 Partly cloudy - 27.5 1013.3 0.0
06/08:00am ESE 4 6 - - - - 10 Partly cloudy - 26.2 1013.1 0.0
06/07:30am SSE 2 9 - - - - 10 Partly cloudy - 25.6 1012.6 0.0
06/07:00am ESE 7 8 - - - - 10 Partly cloudy - 24.7 1012.2 0.0
06/06:30am SE 6 9 - - - - 10 Partly cloudy - 24.6 1012.0 0.0
06/06:00am SE 5 7 - - - - 10 Mostly clear - 24.3 1011.8 0.0
06/05:30am SE 5 7 - - - - 10 Partly cloudy - 25.1 1011.5 0.0
06/05:00am SE 6 8 - - - - 10 Partly cloudy - 24.5 1011.4 0.0
06/04:30am SE 4 7 - - - - 10 - - 24.6 1011.2 0.0
06/04:00am CALM 0 0 - - - - 10 Partly cloudy - 25.0 1011.1 0.0
06/03:30am CALM 0 2 - - - - 10 Partly cloudy - 25.1 1011.2 0.0
06/03:00am SE 3 6 - - - - 10 Cloudy - 25.4 1011.2 0.0
06/02:30am SE 3 4 - - - - 10 - - 25.4 1011.0 0.0
06/02:00am SE 4 5 - - - - 10 - - 25.4 1011.1 0.0
06/01:30am ESE 3 3 - - - - 10 - - 25.4 1011.5 0.0
06/01:00am SE 3 4 - - - - 10 Partly cloudy - 25.4 1011.7 0.0
06/12:30am CALM 0 0 - - - - 10 - - 25.5 1011.9 0.0
06/12:00am CALM 0 0 - - - - 10 Mostly cloudy - 25.6 1012.3 0.0
 
Date/Time
EST
Wind Sea
Height
m
Swell Vis
km
Cloud Weather Temp
°C
Press
hPa
Rain since
9am
mm
Dir  Spd
kts
Gust
kts
Height
m
Period
s
Dir
05/11:30pm S 1 2 - - - - 10 Partly cloudy - 25.6 1012.5 0.0
05/11:00pm CALM 0 1 - - - - 10 - - 25.5 1012.4 0.0
05/10:30pm SSE 1 4 - - - - 10 - - 25.8 1012.5 0.0
05/10:00pm SSE 2 3 - - - - 10 Partly cloudy - 25.8 1012.7 0.0
05/09:30pm SSW 1 3 - - - - 10 Partly cloudy - 26.4 1012.5 0.0
05/09:00pm S 1 3 - - - - 10 Mostly cloudy - 26.7 1012.3 0.0
05/08:30pm SSE 3 4 - - - - 10 - - 26.5 1012.0 0.0
05/08:00pm SSE 2 3 - - - - 10 - - 26.5 1011.7 0.0
05/07:30pm SE 2 3 - - - - 10 - - 26.7 1011.4 0.0
05/07:00pm S 4 7 - - - - 10 - - 27.1 1010.9 0.0
05/06:30pm SW 2 4 - - - - 10 - - 27.6 1010.3 0.0
05/06:00pm S 3 4 - - - - 10 - - 27.9 1009.8 0.0
05/05:30pm SSW 3 7 - - - - 10 - - 28.5 1009.3 0.0
05/05:00pm N 3 8 - - - - 10 - - 29.6 1009.1 0.0
05/04:30pm N 6 9 - - - - 10 Partly cloudy - 30.0 1008.9 0.0
05/04:00pm N 6 11 - - - - 10 Partly cloudy - 29.5 1008.7 0.0
05/03:30pm NNE 8 11 - - - - 10 - - 29.6 1008.6 0.0
05/03:00pm N 8 12 - - - - 10 Partly cloudy - 29.6 1008.6 0.0
05/02:30pm NE 8 11 - - - - 10 Partly cloudy - 29.8 1008.8 0.0
05/02:00pm NE 8 11 - - - - 10 - - 29.3 1009.3 0.0
05/01:30pm NE 9 13 - - - - 10 - - 29.6 1009.6 0.0
05/01:00pm NE 9 13 - - - - 10 - - 29.6 1009.8 0.0
05/12:30pm NE 9 12 - - - - 10 - - 29.9 1010.1 0.0
05/12:00pm ENE 8 11 - - - - 10 - - 29.8 1010.5 0.0
05/11:30am ENE 8 11 - - - - 10 Partly cloudy - 29.8 1011.0 0.0
05/11:00am NE 7 10 - - - - 10 - - 30.2 1011.4 0.0
05/10:30am ENE 5 8 - - - - 10 Partly cloudy - 30.5 1011.7 0.0
05/10:00am ESE 3 8 - - - - 10 Partly cloudy - 29.9 1012.0 0.0
05/09:30am SSE 4 7 - - - - 10 - - 29.7 1012.0 0.0
05/09:00am SSE 4 7 - - - - 10 Partly cloudy - 28.7 1011.9 0.0
05/08:30am S 5 9 - - - - 10 Partly cloudy - 27.8 1011.6 0.0
05/08:00am SE 3 7 - - - - 10 Cloudy - 27.2 1011.4 0.0
05/07:30am WSW 1 4 - - - - 10 Cloudy - 26.2 1011.2 0.0
05/07:00am WNW 1 2 - - - - 10 Cloudy - 24.8 1011.0 0.0
05/06:30am CALM 0 0 - - - - 10 Partly cloudy - 23.9 1010.7 0.0
05/06:00am S 2 2 - - - - 10 Mostly clear - 24.0 1010.4 0.0

Other formats

Comma delimited format used in spreadsheet applications
http://www.bom.gov.au/fwo/IDQ60701/IDQ60701.94287.axf

JavaScript Object Notation format (JSON) in row-major order
http://www.bom.gov.au/fwo/IDQ60701/IDQ60701.94287.json

Data quality

Most of these data are generated automatically and are frequently updated. Quality checks on data are not normally performed. It is possible for incorrect values to appear. Refer to information at About Latest Weather Observations and please check the disclaimer before using these data.